sensor_id;sensor_type;location;lat;lon;timestamp;P1;durP1;ratioP1;P2;durP2;ratioP2
31130;SDS011;20292;50.944;4.034;2022-07-06T00:01:49;6.28;;;3.00;;
31130;SDS011;20292;50.944;4.034;2022-07-06T00:04:16;6.55;;;2.80;;
31130;SDS011;20292;50.944;4.034;2022-07-06T00:06:42;5.55;;;2.97;;
31130;SDS011;20292;50.944;4.034;2022-07-06T00:09:08;12.85;;;3.47;;
31130;SDS011;20292;50.944;4.034;2022-07-06T00:11:34;5.70;;;2.72;;
31130;SDS011;20292;50.944;4.034;2022-07-06T00:14:00;9.00;;;2.72;;
31130;SDS011;20292;50.944;4.034;2022-07-06T00:16:25;5.10;;;2.65;;
31130;SDS011;20292;50.944;4.034;2022-07-06T00:18:51;3.67;;;2.40;;
31130;SDS011;20292;50.944;4.034;2022-07-06T00:21:17;7.63;;;3.30;;
31130;SDS011;20292;50.944;4.034;2022-07-06T00:23:43;9.50;;;3.33;;
31130;SDS011;20292;50.944;4.034;2022-07-06T00:26:09;6.53;;;3.20;;
31130;SDS011;20292;50.944;4.034;2022-07-06T00:28:34;5.10;;;3.10;;
31130;SDS011;20292;50.944;4.034;2022-07-06T00:31:01;5.78;;;3.00;;
31130;SDS011;20292;50.944;4.034;2022-07-06T00:33:26;5.18;;;2.88;;
31130;SDS011;20292;50.944;4.034;2022-07-06T00:35:52;7.32;;;2.85;;
31130;SDS011;20292;50.944;4.034;2022-07-06T00:38:18;7.00;;;3.03;;
31130;SDS011;20292;50.944;4.034;2022-07-06T00:40:43;8.38;;;3.42;;
31130;SDS011;20292;50.944;4.034;2022-07-06T00:43:09;12.48;;;3.25;;
31130;SDS011;20292;50.944;4.034;2022-07-06T00:45:35;6.82;;;3.15;;
31130;SDS011;20292;50.944;4.034;2022-07-06T00:48:00;5.93;;;3.10;;
31130;SDS011;20292;50.944;4.034;2022-07-06T00:50:26;7.22;;;3.10;;
31130;SDS011;20292;50.944;4.034;2022-07-06T00:52:57;7.10;;;3.22;;
31130;SDS011;20292;50.944;4.034;2022-07-06T00:55:26;7.30;;;3.28;;
31130;SDS011;20292;50.944;4.034;2022-07-06T00:57:54;7.00;;;3.17;;
31130;SDS011;20292;50.944;4.034;2022-07-06T01:00:21;4.80;;;3.00;;
31130;SDS011;20292;50.944;4.034;2022-07-06T01:02:48;5.78;;;3.15;;
31130;SDS011;20292;50.944;4.034;2022-07-06T01:05:15;5.45;;;3.03;;
31130;SDS011;20292;50.944;4.034;2022-07-06T01:07:42;4.97;;;3.10;;
31130;SDS011;20292;50.944;4.034;2022-07-06T01:10:11;5.40;;;3.05;;
31130;SDS011;20292;50.944;4.034;2022-07-06T01:12:39;7.35;;;2.65;;
31130;SDS011;20292;50.944;4.034;2022-07-06T01:15:06;6.50;;;3.03;;
31130;SDS011;20292;50.944;4.034;2022-07-06T01:17:38;7.43;;;3.47;;
31130;SDS011;20292;50.944;4.034;2022-07-06T01:20:14;5.63;;;3.08;;
31130;SDS011;20292;50.944;4.034;2022-07-06T01:22:49;8.52;;;3.70;;
31130;SDS011;20292;50.944;4.034;2022-07-06T01:25:16;6.72;;;3.08;;
31130;SDS011;20292;50.944;4.034;2022-07-06T01:27:42;6.80;;;3.70;;
31130;SDS011;20292;50.944;4.034;2022-07-06T01:30:09;11.10;;;3.72;;
31130;SDS011;20292;50.944;4.034;2022-07-06T01:32:42;6.43;;;3.30;;
31130;SDS011;20292;50.944;4.034;2022-07-06T01:35:10;9.32;;;4.47;;
31130;SDS011;20292;50.944;4.034;2022-07-06T01:37:37;7.25;;;4.10;;
31130;SDS011;20292;50.944;4.034;2022-07-06T01:40:04;8.43;;;4.40;;
31130;SDS011;20292;50.944;4.034;2022-07-06T01:42:31;7.82;;;4.20;;
31130;SDS011;20292;50.944;4.034;2022-07-06T01:44:58;7.88;;;4.00;;
31130;SDS011;20292;50.944;4.034;2022-07-06T01:47:24;9.23;;;4.50;;
31130;SDS011;20292;50.944;4.034;2022-07-06T01:49:49;7.97;;;4.28;;
31130;SDS011;20292;50.944;4.034;2022-07-06T01:52:15;6.10;;;4.30;;
31130;SDS011;20292;50.944;4.034;2022-07-06T01:54:41;7.47;;;3.83;;
31130;SDS011;20292;50.944;4.034;2022-07-06T01:57:07;7.32;;;4.00;;
31130;SDS011;20292;50.944;4.034;2022-07-06T01:59:33;10.85;;;4.18;;
31130;SDS011;20292;50.944;4.034;2022-07-06T02:01:58;11.20;;;5.10;;
31130;SDS011;20292;50.944;4.034;2022-07-06T02:04:24;8.88;;;4.63;;
31130;SDS011;20292;50.944;4.034;2022-07-06T02:06:50;7.63;;;4.68;;
31130;SDS011;20292;50.944;4.034;2022-07-06T02:09:16;11.80;;;5.13;;
31130;SDS011;20292;50.944;4.034;2022-07-06T02:11:42;9.60;;;4.50;;
31130;SDS011;20292;50.944;4.034;2022-07-06T02:14:08;7.68;;;4.40;;
31130;SDS011;20292;50.944;4.034;2022-07-06T02:16:33;9.68;;;4.93;;
31130;SDS011;20292;50.944;4.034;2022-07-06T02:18:59;9.25;;;4.30;;
31130;SDS011;20292;50.944;4.034;2022-07-06T02:21:25;12.20;;;4.50;;
31130;SDS011;20292;50.944;4.034;2022-07-06T02:23:51;8.40;;;4.15;;
31130;SDS011;20292;50.944;4.034;2022-07-06T02:26:17;9.35;;;4.38;;
31130;SDS011;20292;50.944;4.034;2022-07-06T02:28:42;9.10;;;4.28;;
31130;SDS011;20292;50.944;4.034;2022-07-06T02:31:08;6.32;;;4.03;;
31130;SDS011;20292;50.944;4.034;2022-07-06T02:33:35;8.15;;;4.03;;
31130;SDS011;20292;50.944;4.034;2022-07-06T02:36:01;8.35;;;3.95;;
31130;SDS011;20292;50.944;4.034;2022-07-06T02:38:26;13.45;;;3.75;;
31130;SDS011;20292;50.944;4.034;2022-07-06T02:40:52;9.35;;;3.70;;
31130;SDS011;20292;50.944;4.034;2022-07-06T02:43:18;7.30;;;3.67;;
31130;SDS011;20292;50.944;4.034;2022-07-06T02:45:43;11.73;;;4.03;;
31130;SDS011;20292;50.944;4.034;2022-07-06T02:48:09;9.52;;;4.15;;
31130;SDS011;20292;50.944;4.034;2022-07-06T02:50:34;8.40;;;4.40;;
31130;SDS011;20292;50.944;4.034;2022-07-06T02:53:00;11.27;;;4.25;;
31130;SDS011;20292;50.944;4.034;2022-07-06T02:55:26;8.40;;;4.22;;
31130;SDS011;20292;50.944;4.034;2022-07-06T02:57:52;6.90;;;3.90;;
31130;SDS011;20292;50.944;4.034;2022-07-06T03:00:18;8.05;;;3.80;;
31130;SDS011;20292;50.944;4.034;2022-07-06T03:02:44;6.13;;;3.88;;
31130;SDS011;20292;50.944;4.034;2022-07-06T03:05:09;6.43;;;3.67;;
31130;SDS011;20292;50.944;4.034;2022-07-06T03:07:35;7.40;;;3.90;;
31130;SDS011;20292;50.944;4.034;2022-07-06T03:10:01;8.15;;;3.90;;
31130;SDS011;20292;50.944;4.034;2022-07-06T03:12:26;9.57;;;4.10;;
31130;SDS011;20292;50.944;4.034;2022-07-06T03:14:52;10.98;;;4.15;;
31130;SDS011;20292;50.944;4.034;2022-07-06T03:17:18;13.48;;;4.07;;
31130;SDS011;20292;50.944;4.034;2022-07-06T03:19:43;10.73;;;4.68;;
31130;SDS011;20292;50.944;4.034;2022-07-06T03:22:09;8.18;;;4.22;;
31130;SDS011;20292;50.944;4.034;2022-07-06T03:24:34;9.15;;;4.03;;
31130;SDS011;20292;50.944;4.034;2022-07-06T03:27:00;8.65;;;3.92;;
31130;SDS011;20292;50.944;4.034;2022-07-06T03:29:26;10.85;;;4.28;;
31130;SDS011;20292;50.944;4.034;2022-07-06T03:31:51;9.60;;;4.40;;
31130;SDS011;20292;50.944;4.034;2022-07-06T03:34:17;8.48;;;4.20;;
31130;SDS011;20292;50.944;4.034;2022-07-06T03:36:42;11.32;;;4.32;;
31130;SDS011;20292;50.944;4.034;2022-07-06T03:39:08;10.13;;;4.53;;
31130;SDS011;20292;50.944;4.034;2022-07-06T03:41:34;6.22;;;3.88;;
31130;SDS011;20292;50.944;4.034;2022-07-06T03:43:59;8.38;;;4.20;;
31130;SDS011;20292;50.944;4.034;2022-07-06T03:46:25;12.35;;;4.75;;
31130;SDS011;20292;50.944;4.034;2022-07-06T03:48:51;9.32;;;4.95;;
31130;SDS011;20292;50.944;4.034;2022-07-06T03:51:17;7.55;;;4.60;;
31130;SDS011;20292;50.944;4.034;2022-07-06T03:53:43;9.05;;;4.60;;
31130;SDS011;20292;50.944;4.034;2022-07-06T03:56:08;7.60;;;4.53;;
31130;SDS011;20292;50.944;4.034;2022-07-06T03:58:52;9.63;;;4.50;;
31130;SDS011;20292;50.944;4.034;2022-07-06T04:01:19;9.55;;;4.35;;
31130;SDS011;20292;50.944;4.034;2022-07-06T04:03:44;10.30;;;4.75;;
31130;SDS011;20292;50.944;4.034;2022-07-06T04:06:10;8.02;;;4.82;;
31130;SDS011;20292;50.944;4.034;2022-07-06T04:08:36;12.43;;;4.82;;
31130;SDS011;20292;50.944;4.034;2022-07-06T04:11:01;7.43;;;5.10;;
31130;SDS011;20292;50.944;4.034;2022-07-06T04:13:27;7.13;;;4.20;;
31130;SDS011;20292;50.944;4.034;2022-07-06T04:15:53;10.27;;;4.15;;
31130;SDS011;20292;50.944;4.034;2022-07-06T04:18:18;8.63;;;4.68;;
31130;SDS011;20292;50.944;4.034;2022-07-06T04:20:44;9.10;;;4.85;;
31130;SDS011;20292;50.944;4.034;2022-07-06T04:23:10;9.57;;;4.70;;
31130;SDS011;20292;50.944;4.034;2022-07-06T04:25:35;11.05;;;4.43;;
31130;SDS011;20292;50.944;4.034;2022-07-06T04:28:01;9.60;;;4.85;;
31130;SDS011;20292;50.944;4.034;2022-07-06T04:30:27;9.27;;;4.60;;
31130;SDS011;20292;50.944;4.034;2022-07-06T04:32:52;9.63;;;4.13;;
31130;SDS011;20292;50.944;4.034;2022-07-06T04:35:18;10.75;;;4.63;;
31130;SDS011;20292;50.944;4.034;2022-07-06T04:37:44;13.50;;;4.63;;
31130;SDS011;20292;50.944;4.034;2022-07-06T04:40:11;12.48;;;4.53;;
31130;SDS011;20292;50.944;4.034;2022-07-06T04:42:37;7.10;;;4.47;;
31130;SDS011;20292;50.944;4.034;2022-07-06T04:45:03;11.15;;;4.90;;
31130;SDS011;20292;50.944;4.034;2022-07-06T04:47:29;6.68;;;4.63;;
31130;SDS011;20292;50.944;4.034;2022-07-06T04:49:54;9.10;;;5.13;;
31130;SDS011;20292;50.944;4.034;2022-07-06T04:52:20;10.50;;;4.72;;
31130;SDS011;20292;50.944;4.034;2022-07-06T04:54:46;8.38;;;4.35;;
31130;SDS011;20292;50.944;4.034;2022-07-06T04:57:11;10.07;;;4.63;;
31130;SDS011;20292;50.944;4.034;2022-07-06T04:59:37;9.80;;;5.93;;
31130;SDS011;20292;50.944;4.034;2022-07-06T05:02:03;11.48;;;5.03;;
31130;SDS011;20292;50.944;4.034;2022-07-06T05:04:28;7.70;;;4.63;;
31130;SDS011;20292;50.944;4.034;2022-07-06T05:06:54;14.02;;;5.03;;
31130;SDS011;20292;50.944;4.034;2022-07-06T05:09:20;12.57;;;5.57;;
31130;SDS011;20292;50.944;4.034;2022-07-06T05:11:46;12.40;;;5.65;;
31130;SDS011;20292;50.944;4.034;2022-07-06T05:14:12;14.75;;;5.80;;
31130;SDS011;20292;50.944;4.034;2022-07-06T05:16:37;9.25;;;4.90;;
31130;SDS011;20292;50.944;4.034;2022-07-06T05:19:03;8.52;;;5.05;;
31130;SDS011;20292;50.944;4.034;2022-07-06T05:21:29;8.82;;;4.55;;
31130;SDS011;20292;50.944;4.034;2022-07-06T05:23:54;8.98;;;4.32;;
31130;SDS011;20292;50.944;4.034;2022-07-06T05:26:20;14.18;;;5.10;;
31130;SDS011;20292;50.944;4.034;2022-07-06T05:28:46;12.65;;;5.18;;
31130;SDS011;20292;50.944;4.034;2022-07-06T05:31:11;10.65;;;5.38;;
31130;SDS011;20292;50.944;4.034;2022-07-06T05:33:37;13.48;;;5.25;;
31130;SDS011;20292;50.944;4.034;2022-07-06T05:36:03;11.18;;;5.32;;
31130;SDS011;20292;50.944;4.034;2022-07-06T05:38:28;15.30;;;5.45;;
31130;SDS011;20292;50.944;4.034;2022-07-06T05:40:54;15.75;;;5.93;;
31130;SDS011;20292;50.944;4.034;2022-07-06T05:43:20;21.55;;;5.97;;
31130;SDS011;20292;50.944;4.034;2022-07-06T05:45:45;17.88;;;5.88;;
31130;SDS011;20292;50.944;4.034;2022-07-06T05:48:11;11.18;;;5.40;;
31130;SDS011;20292;50.944;4.034;2022-07-06T05:50:55;13.48;;;5.75;;
31130;SDS011;20292;50.944;4.034;2022-07-06T05:53:21;19.92;;;6.07;;
31130;SDS011;20292;50.944;4.034;2022-07-06T05:55:47;17.90;;;5.68;;
31130;SDS011;20292;50.944;4.034;2022-07-06T05:58:12;11.40;;;5.28;;
31130;SDS011;20292;50.944;4.034;2022-07-06T06:00:38;11.18;;;5.47;;
31130;SDS011;20292;50.944;4.034;2022-07-06T06:03:04;11.15;;;5.18;;
31130;SDS011;20292;50.944;4.034;2022-07-06T06:05:30;11.25;;;5.20;;
31130;SDS011;20292;50.944;4.034;2022-07-06T06:07:55;14.05;;;5.60;;
31130;SDS011;20292;50.944;4.034;2022-07-06T06:10:21;10.27;;;5.38;;
31130;SDS011;20292;50.944;4.034;2022-07-06T06:12:47;17.25;;;5.05;;
31130;SDS011;20292;50.944;4.034;2022-07-06T06:15:13;10.88;;;5.03;;
31130;SDS011;20292;50.944;4.034;2022-07-06T06:17:39;10.98;;;5.18;;
31130;SDS011;20292;50.944;4.034;2022-07-06T06:20:05;12.55;;;5.28;;
31130;SDS011;20292;50.944;4.034;2022-07-06T06:22:48;8.55;;;5.00;;
31130;SDS011;20292;50.944;4.034;2022-07-06T06:25:16;11.07;;;5.28;;
31130;SDS011;20292;50.944;4.034;2022-07-06T06:27:43;13.50;;;5.40;;
31130;SDS011;20292;50.944;4.034;2022-07-06T06:30:09;12.70;;;5.40;;
31130;SDS011;20292;50.944;4.034;2022-07-06T06:32:35;9.95;;;5.75;;
31130;SDS011;20292;50.944;4.034;2022-07-06T06:35:01;14.10;;;5.15;;
31130;SDS011;20292;50.944;4.034;2022-07-06T06:37:27;8.80;;;4.50;;
31130;SDS011;20292;50.944;4.034;2022-07-06T06:39:53;10.80;;;4.68;;
31130;SDS011;20292;50.944;4.034;2022-07-06T06:42:18;10.18;;;5.03;;
31130;SDS011;20292;50.944;4.034;2022-07-06T06:44:44;8.02;;;4.68;;
31130;SDS011;20292;50.944;4.034;2022-07-06T06:47:09;12.50;;;4.50;;
31130;SDS011;20292;50.944;4.034;2022-07-06T06:49:35;9.32;;;4.47;;
31130;SDS011;20292;50.944;4.034;2022-07-06T06:52:01;11.23;;;5.50;;
31130;SDS011;20292;50.944;4.034;2022-07-06T06:54:26;10.20;;;5.20;;
31130;SDS011;20292;50.944;4.034;2022-07-06T06:56:52;10.02;;;4.80;;
31130;SDS011;20292;50.944;4.034;2022-07-06T06:59:18;11.82;;;5.15;;
31130;SDS011;20292;50.944;4.034;2022-07-06T07:01:43;7.13;;;4.80;;
31130;SDS011;20292;50.944;4.034;2022-07-06T07:04:09;9.88;;;5.15;;
31130;SDS011;20292;50.944;4.034;2022-07-06T07:06:35;12.70;;;5.00;;
31130;SDS011;20292;50.944;4.034;2022-07-06T07:09:00;8.90;;;5.00;;
31130;SDS011;20292;50.944;4.034;2022-07-06T07:11:26;8.73;;;5.03;;
31130;SDS011;20292;50.944;4.034;2022-07-06T07:13:52;10.10;;;4.53;;
31130;SDS011;20292;50.944;4.034;2022-07-06T07:16:17;9.88;;;5.05;;
31130;SDS011;20292;50.944;4.034;2022-07-06T07:18:43;6.53;;;3.72;;
31130;SDS011;20292;50.944;4.034;2022-07-06T07:21:09;8.20;;;4.22;;
31130;SDS011;20292;50.944;4.034;2022-07-06T07:23:34;9.27;;;4.40;;
31130;SDS011;20292;50.944;4.034;2022-07-06T07:26:00;8.75;;;4.35;;
31130;SDS011;20292;50.944;4.034;2022-07-06T07:28:25;14.77;;;4.80;;
31130;SDS011;20292;50.944;4.034;2022-07-06T07:30:51;10.25;;;3.67;;
31130;SDS011;20292;50.944;4.034;2022-07-06T07:33:17;11.13;;;4.55;;
31130;SDS011;20292;50.944;4.034;2022-07-06T07:35:42;10.48;;;4.43;;
31130;SDS011;20292;50.944;4.034;2022-07-06T07:38:08;12.70;;;4.63;;
31130;SDS011;20292;50.944;4.034;2022-07-06T07:40:33;7.90;;;3.72;;
31130;SDS011;20292;50.944;4.034;2022-07-06T07:43:00;11.20;;;4.18;;
31130;SDS011;20292;50.944;4.034;2022-07-06T07:45:26;13.23;;;4.18;;
31130;SDS011;20292;50.944;4.034;2022-07-06T07:47:52;8.20;;;3.10;;
31130;SDS011;20292;50.944;4.034;2022-07-06T07:50:17;6.70;;;2.58;;
31130;SDS011;20292;50.944;4.034;2022-07-06T07:52:43;9.20;;;2.90;;
31130;SDS011;20292;50.944;4.034;2022-07-06T07:55:09;11.02;;;2.63;;
31130;SDS011;20292;50.944;4.034;2022-07-06T07:57:34;7.60;;;2.88;;
31130;SDS011;20292;50.944;4.034;2022-07-06T08:00:00;6.30;;;2.67;;
31130;SDS011;20292;50.944;4.034;2022-07-06T08:02:26;8.38;;;3.55;;
31130;SDS011;20292;50.944;4.034;2022-07-06T08:04:51;7.90;;;3.28;;
31130;SDS011;20292;50.944;4.034;2022-07-06T08:07:17;6.43;;;2.90;;
31130;SDS011;20292;50.944;4.034;2022-07-06T08:09:42;8.68;;;3.78;;
31130;SDS011;20292;50.944;4.034;2022-07-06T08:12:08;7.47;;;3.17;;
31130;SDS011;20292;50.944;4.034;2022-07-06T08:14:34;5.93;;;3.38;;
31130;SDS011;20292;50.944;4.034;2022-07-06T08:17:02;6.90;;;3.42;;
31130;SDS011;20292;50.944;4.034;2022-07-06T08:19:28;6.40;;;3.97;;
31130;SDS011;20292;50.944;4.034;2022-07-06T08:21:55;11.55;;;4.00;;
31130;SDS011;20292;50.944;4.034;2022-07-06T08:24:21;7.05;;;3.70;;
31130;SDS011;20292;50.944;4.034;2022-07-06T08:26:47;5.57;;;3.60;;
31130;SDS011;20292;50.944;4.034;2022-07-06T08:29:12;8.70;;;4.30;;
31130;SDS011;20292;50.944;4.034;2022-07-06T08:31:38;8.73;;;4.47;;
31130;SDS011;20292;50.944;4.034;2022-07-06T08:34:03;8.60;;;3.90;;
31130;SDS011;20292;50.944;4.034;2022-07-06T08:36:29;6.88;;;4.03;;
31130;SDS011;20292;50.944;4.034;2022-07-06T08:38:55;7.53;;;4.18;;
31130;SDS011;20292;50.944;4.034;2022-07-06T08:41:22;8.95;;;3.90;;
31130;SDS011;20292;50.944;4.034;2022-07-06T08:43:50;7.70;;;3.80;;
31130;SDS011;20292;50.944;4.034;2022-07-06T08:46:16;5.65;;;3.08;;
31130;SDS011;20292;50.944;4.034;2022-07-06T08:48:43;8.75;;;3.55;;
31130;SDS011;20292;50.944;4.034;2022-07-06T08:51:11;10.50;;;3.85;;
31130;SDS011;20292;50.944;4.034;2022-07-06T08:53:39;7.82;;;3.28;;
31130;SDS011;20292;50.944;4.034;2022-07-06T08:56:07;7.22;;;3.10;;
31130;SDS011;20292;50.944;4.034;2022-07-06T08:58:33;6.68;;;3.28;;
31130;SDS011;20292;50.944;4.034;2022-07-06T09:01:00;10.40;;;3.92;;
31130;SDS011;20292;50.944;4.034;2022-07-06T09:03:26;8.50;;;3.67;;
31130;SDS011;20292;50.944;4.034;2022-07-06T09:05:52;7.88;;;3.50;;
31130;SDS011;20292;50.944;4.034;2022-07-06T09:08:23;5.88;;;3.70;;
31130;SDS011;20292;50.944;4.034;2022-07-06T09:10:51;9.60;;;3.50;;
31130;SDS011;20292;50.944;4.034;2022-07-06T09:13:17;8.10;;;3.13;;
31130;SDS011;20292;50.944;4.034;2022-07-06T09:15:43;10.07;;;3.45;;
31130;SDS011;20292;50.944;4.034;2022-07-06T09:18:08;9.55;;;3.55;;
31130;SDS011;20292;50.944;4.034;2022-07-06T09:20:34;8.18;;;3.65;;
31130;SDS011;20292;50.944;4.034;2022-07-06T09:23:01;6.97;;;3.35;;
31130;SDS011;20292;50.944;4.034;2022-07-06T09:25:29;7.20;;;3.50;;
31130;SDS011;20292;50.944;4.034;2022-07-06T09:27:55;7.22;;;3.70;;
31130;SDS011;20292;50.944;4.034;2022-07-06T09:30:23;6.72;;;3.35;;
31130;SDS011;20292;50.944;4.034;2022-07-06T09:32:52;10.52;;;3.63;;
31130;SDS011;20292;50.944;4.034;2022-07-06T09:35:19;9.43;;;3.40;;
31130;SDS011;20292;50.944;4.034;2022-07-06T09:37:59;7.40;;;3.53;;
31130;SDS011;20292;50.944;4.034;2022-07-06T09:40:26;10.15;;;3.75;;
31130;SDS011;20292;50.944;4.034;2022-07-06T09:42:51;9.50;;;3.30;;
31130;SDS011;20292;50.944;4.034;2022-07-06T09:45:33;7.22;;;3.05;;
31130;SDS011;20292;50.944;4.034;2022-07-06T09:48:10;8.15;;;3.03;;
31130;SDS011;20292;50.944;4.034;2022-07-06T09:50:44;5.32;;;2.78;;
31130;SDS011;20292;50.944;4.034;2022-07-06T09:53:11;9.25;;;2.75;;
31130;SDS011;20292;50.944;4.034;2022-07-06T09:55:37;6.63;;;3.03;;
31130;SDS011;20292;50.944;4.034;2022-07-06T09:58:03;7.30;;;2.97;;
31130;SDS011;20292;50.944;4.034;2022-07-06T10:00:29;8.82;;;2.95;;
31130;SDS011;20292;50.944;4.034;2022-07-06T10:02:55;8.07;;;3.35;;
31130;SDS011;20292;50.944;4.034;2022-07-06T10:05:21;6.38;;;3.10;;
31130;SDS011;20292;50.944;4.034;2022-07-06T10:07:55;10.85;;;3.70;;
31130;SDS011;20292;50.944;4.034;2022-07-06T10:10:24;7.57;;;3.30;;
31130;SDS011;20292;50.944;4.034;2022-07-06T10:12:51;6.80;;;3.20;;
31130;SDS011;20292;50.944;4.034;2022-07-06T10:15:26;7.80;;;3.08;;
31130;SDS011;20292;50.944;4.034;2022-07-06T10:17:53;9.43;;;3.15;;
31130;SDS011;20292;50.944;4.034;2022-07-06T10:20:21;5.95;;;3.15;;
31130;SDS011;20292;50.944;4.034;2022-07-06T10:22:47;6.65;;;2.83;;
31130;SDS011;20292;50.944;4.034;2022-07-06T10:25:15;7.47;;;3.08;;
31130;SDS011;20292;50.944;4.034;2022-07-06T10:27:42;6.97;;;2.90;;
31130;SDS011;20292;50.944;4.034;2022-07-06T10:30:09;8.77;;;3.40;;
31130;SDS011;20292;50.944;4.034;2022-07-06T10:32:36;8.98;;;2.55;;
31130;SDS011;20292;50.944;4.034;2022-07-06T10:35:04;8.35;;;2.72;;
31130;SDS011;20292;50.944;4.034;2022-07-06T10:37:30;7.30;;;3.05;;
31130;SDS011;20292;50.944;4.034;2022-07-06T10:39:57;12.30;;;2.95;;
31130;SDS011;20292;50.944;4.034;2022-07-06T10:42:42;6.78;;;3.10;;
31130;SDS011;20292;50.944;4.034;2022-07-06T10:45:09;7.13;;;2.85;;
31130;SDS011;20292;50.944;4.034;2022-07-06T10:47:36;4.93;;;2.78;;
31130;SDS011;20292;50.944;4.034;2022-07-06T10:50:03;6.53;;;2.88;;
31130;SDS011;20292;50.944;4.034;2022-07-06T10:55:34;7.10;;;2.83;;
31130;SDS011;20292;50.944;4.034;2022-07-06T10:58:02;8.98;;;2.67;;
31130;SDS011;20292;50.944;4.034;2022-07-06T11:00:47;6.45;;;2.65;;
31130;SDS011;20292;50.944;4.034;2022-07-06T11:06:05;5.88;;;2.20;;
31130;SDS011;20292;50.944;4.034;2022-07-06T11:08:46;6.88;;;2.35;;
31130;SDS011;20292;50.944;4.034;2022-07-06T11:11:20;7.90;;;2.75;;
31130;SDS011;20292;50.944;4.034;2022-07-06T11:13:48;5.72;;;2.63;;
31130;SDS011;20292;50.944;4.034;2022-07-06T11:16:16;7.18;;;3.17;;
31130;SDS011;20292;50.944;4.034;2022-07-06T11:18:46;7.70;;;3.17;;
31130;SDS011;20292;50.944;4.034;2022-07-06T11:21:22;9.70;;;3.17;;
31130;SDS011;20292;50.944;4.034;2022-07-06T11:23:56;8.55;;;2.75;;
31130;SDS011;20292;50.944;4.034;2022-07-06T11:26:23;7.10;;;2.65;;
31130;SDS011;20292;50.944;4.034;2022-07-06T11:28:50;8.25;;;2.80;;
31130;SDS011;20292;50.944;4.034;2022-07-06T11:31:16;6.30;;;2.70;;
31130;SDS011;20292;50.944;4.034;2022-07-06T11:33:44;8.00;;;2.55;;
31130;SDS011;20292;50.944;4.034;2022-07-06T11:36:15;5.43;;;2.80;;
31130;SDS011;20292;50.944;4.034;2022-07-06T11:38:46;5.55;;;2.83;;
31130;SDS011;20292;50.944;4.034;2022-07-06T11:41:14;5.25;;;2.80;;
31130;SDS011;20292;50.944;4.034;2022-07-06T11:43:41;7.22;;;3.20;;
31130;SDS011;20292;50.944;4.034;2022-07-06T11:46:19;8.50;;;2.88;;
31130;SDS011;20292;50.944;4.034;2022-07-06T11:48:56;7.97;;;2.53;;
31130;SDS011;20292;50.944;4.034;2022-07-06T11:51:34;6.03;;;2.40;;
31130;SDS011;20292;50.944;4.034;2022-07-06T11:54:06;5.78;;;3.00;;
31130;SDS011;20292;50.944;4.034;2022-07-06T11:56:49;6.95;;;2.65;;
31130;SDS011;20292;50.944;4.034;2022-07-06T11:59:16;14.88;;;2.80;;
31130;SDS011;20292;50.944;4.034;2022-07-06T12:04:29;10.20;;;2.80;;
31130;SDS011;20292;50.944;4.034;2022-07-06T12:07:00;8.15;;;2.75;;
31130;SDS011;20292;50.944;4.034;2022-07-06T12:09:28;8.85;;;3.25;;
31130;SDS011;20292;50.944;4.034;2022-07-06T12:11:55;6.88;;;3.15;;
31130;SDS011;20292;50.944;4.034;2022-07-06T12:14:21;8.30;;;2.83;;
31130;SDS011;20292;50.944;4.034;2022-07-06T12:16:50;11.38;;;3.25;;
31130;SDS011;20292;50.944;4.034;2022-07-06T12:19:16;7.00;;;2.55;;
31130;SDS011;20292;50.944;4.034;2022-07-06T12:21:46;7.80;;;2.88;;
31130;SDS011;20292;50.944;4.034;2022-07-06T12:24:16;5.70;;;2.45;;
31130;SDS011;20292;50.944;4.034;2022-07-06T12:26:46;8.38;;;2.45;;
31130;SDS011;20292;50.944;4.034;2022-07-06T12:29:12;10.77;;;2.58;;
31130;SDS011;20292;50.944;4.034;2022-07-06T12:31:39;6.75;;;2.70;;
31130;SDS011;20292;50.944;4.034;2022-07-06T12:34:11;6.38;;;2.95;;
31130;SDS011;20292;50.944;4.034;2022-07-06T12:36:48;6.45;;;2.28;;
31130;SDS011;20292;50.944;4.034;2022-07-06T12:39:15;6.97;;;2.00;;
31130;SDS011;20292;50.944;4.034;2022-07-06T12:41:43;9.55;;;2.60;;
31130;SDS011;20292;50.944;4.034;2022-07-06T12:44:09;4.88;;;2.25;;
31130;SDS011;20292;50.944;4.034;2022-07-06T12:46:36;3.08;;;2.20;;
31130;SDS011;20292;50.944;4.034;2022-07-06T12:49:06;5.28;;;2.78;;
31130;SDS011;20292;50.944;4.034;2022-07-06T12:54:23;5.20;;;2.55;;
31130;SDS011;20292;50.944;4.034;2022-07-06T12:57:01;6.63;;;2.60;;
31130;SDS011;20292;50.944;4.034;2022-07-06T12:59:36;6.75;;;2.92;;
31130;SDS011;20292;50.944;4.034;2022-07-06T13:02:04;7.90;;;2.75;;
31130;SDS011;20292;50.944;4.034;2022-07-06T13:04:31;4.55;;;2.05;;
31130;SDS011;20292;50.944;4.034;2022-07-06T13:06:57;5.97;;;2.45;;
31130;SDS011;20292;50.944;4.034;2022-07-06T13:09:24;5.38;;;2.78;;
31130;SDS011;20292;50.944;4.034;2022-07-06T13:11:50;10.82;;;2.50;;
31130;SDS011;20292;50.944;4.034;2022-07-06T13:14:16;7.82;;;2.83;;
31130;SDS011;20292;50.944;4.034;2022-07-06T13:16:43;4.80;;;2.30;;
31130;SDS011;20292;50.944;4.034;2022-07-06T13:19:09;7.72;;;2.35;;
31130;SDS011;20292;50.944;4.034;2022-07-06T13:21:35;5.55;;;2.10;;
31130;SDS011;20292;50.944;4.034;2022-07-06T13:24:01;7.03;;;2.50;;
31130;SDS011;20292;50.944;4.034;2022-07-06T13:26:27;5.50;;;1.98;;
31130;SDS011;20292;50.944;4.034;2022-07-06T13:28:53;5.70;;;2.13;;
31130;SDS011;20292;50.944;4.034;2022-07-06T13:31:19;5.75;;;2.13;;
31130;SDS011;20292;50.944;4.034;2022-07-06T13:33:45;4.50;;;2.00;;
31130;SDS011;20292;50.944;4.034;2022-07-06T13:36:10;4.03;;;2.40;;
31130;SDS011;20292;50.944;4.034;2022-07-06T13:38:36;7.78;;;2.53;;
31130;SDS011;20292;50.944;4.034;2022-07-06T13:41:02;4.88;;;2.00;;
31130;SDS011;20292;50.944;4.034;2022-07-06T13:43:27;5.90;;;1.67;;
31130;SDS011;20292;50.944;4.034;2022-07-06T13:46:01;9.23;;;2.22;;
31130;SDS011;20292;50.944;4.034;2022-07-06T13:48:31;6.55;;;2.53;;
31130;SDS011;20292;50.944;4.034;2022-07-06T13:50:57;5.25;;;2.17;;
31130;SDS011;20292;50.944;4.034;2022-07-06T13:53:23;7.35;;;2.47;;
31130;SDS011;20292;50.944;4.034;2022-07-06T13:55:49;5.55;;;2.30;;
31130;SDS011;20292;50.944;4.034;2022-07-06T13:58:14;6.25;;;2.08;;
31130;SDS011;20292;50.944;4.034;2022-07-06T14:00:40;6.53;;;2.55;;
31130;SDS011;20292;50.944;4.034;2022-07-06T14:03:06;7.25;;;2.78;;
31130;SDS011;20292;50.944;4.034;2022-07-06T14:05:35;6.30;;;2.47;;
31130;SDS011;20292;50.944;4.034;2022-07-06T14:08:01;5.60;;;2.45;;
31130;SDS011;20292;50.944;4.034;2022-07-06T14:10:27;15.23;;;2.83;;
31130;SDS011;20292;50.944;4.034;2022-07-06T14:12:53;7.90;;;2.45;;
31130;SDS011;20292;50.944;4.034;2022-07-06T14:15:18;4.93;;;2.22;;
31130;SDS011;20292;50.944;4.034;2022-07-06T14:17:44;8.18;;;2.78;;
31130;SDS011;20292;50.944;4.034;2022-07-06T14:20:10;6.82;;;2.63;;
31130;SDS011;20292;50.944;4.034;2022-07-06T14:22:36;6.32;;;2.45;;
31130;SDS011;20292;50.944;4.034;2022-07-06T14:25:02;5.30;;;1.98;;
31130;SDS011;20292;50.944;4.034;2022-07-06T14:27:30;9.57;;;2.50;;
31130;SDS011;20292;50.944;4.034;2022-07-06T14:29:56;5.63;;;2.35;;
31130;SDS011;20292;50.944;4.034;2022-07-06T14:32:21;5.45;;;2.10;;
31130;SDS011;20292;50.944;4.034;2022-07-06T14:34:47;5.32;;;2.65;;
31130;SDS011;20292;50.944;4.034;2022-07-06T14:37:13;7.97;;;2.30;;
31130;SDS011;20292;50.944;4.034;2022-07-06T14:39:38;10.82;;;2.70;;
31130;SDS011;20292;50.944;4.034;2022-07-06T14:42:04;7.55;;;2.53;;
31130;SDS011;20292;50.944;4.034;2022-07-06T14:44:30;6.00;;;2.75;;
31130;SDS011;20292;50.944;4.034;2022-07-06T14:46:55;7.38;;;3.10;;
31130;SDS011;20292;50.944;4.034;2022-07-06T14:49:22;4.80;;;2.88;;
31130;SDS011;20292;50.944;4.034;2022-07-06T14:51:48;9.32;;;3.00;;
31130;SDS011;20292;50.944;4.034;2022-07-06T14:54:14;5.90;;;3.10;;
31130;SDS011;20292;50.944;4.034;2022-07-06T14:56:41;7.60;;;3.30;;